Time;durP1;ratioP1;P1;durP2;ratioP2;P2;SDS_P1;SDS_P2;PMS_P1;PMS_P2;Temp;Humidity;BMP_temperature;BMP_pressure;BME280_temperature;BME280_humidity;BME280_pressure;Samples;Min_cycle;Max_cycle;Signal;HPM_P1;HPM_P2
2023/06/06 00:01:49;;;;;;;9.90;5.70;;;13.10;99.90;;;;;;5052485;28;20032;-72
2023/06/06 00:04:15;;;;;;;7.60;5.90;;;13.00;99.90;;;;;;5052861;28;20086;-72
2023/06/06 00:06:44;;;;;;;7.93;5.57;;;13.00;99.90;;;;;;5052695;28;20025;-71
2023/06/06 00:09:10;;;;;;;8.45;6.03;;;13.00;99.90;;;;;;5052790;28;20017;-70
2023/06/06 00:11:39;;;;;;;7.25;5.45;;;13.00;99.90;;;;;;5052693;28;20044;-73
2023/06/06 00:14:07;;;;;;;9.55;6.22;;;12.90;99.90;;;;;;5052398;28;20112;-71
2023/06/06 00:16:34;;;;;;;6.68;5.47;;;12.90;99.90;;;;;;5052704;28;20036;-70
2023/06/06 00:19:00;;;;;;;6.68;5.97;;;12.90;99.90;;;;;;5051934;28;20036;-70
2023/06/06 00:21:27;;;;;;;8.35;5.80;;;12.80;99.90;;;;;;5053075;28;20039;-70
2023/06/06 00:23:55;;;;;;;10.15;6.22;;;12.80;99.90;;;;;;5051740;28;20033;-70
2023/06/06 00:26:20;;;;;;;6.38;5.78;;;12.80;99.90;;;;;;5051317;28;20049;-70
2023/06/06 00:28:46;;;;;;;10.38;5.95;;;12.80;99.90;;;;;;5050703;28;20369;-70
2023/06/06 00:31:12;;;;;;;6.85;6.15;;;12.70;99.90;;;;;;5052398;28;20032;-70
2023/06/06 00:33:38;;;;;;;7.45;5.80;;;12.70;99.90;;;;;;5051777;28;20040;-73
2023/06/06 00:36:04;;;;;;;7.15;5.95;;;12.70;99.90;;;;;;5051995;28;20446;-70
2023/06/06 00:38:32;;;;;;;8.25;6.10;;;12.70;99.90;;;;;;5052216;28;20021;-70
2023/06/06 00:40:58;;;;;;;9.30;6.25;;;12.70;99.90;;;;;;5051770;28;20017;-70
2023/06/06 00:43:23;;;;;;;8.27;6.32;;;12.70;99.90;;;;;;5052207;28;20036;-70
2023/06/06 00:45:49;;;;;;;7.13;6.10;;;12.70;99.90;;;;;;5051171;28;20469;-70
2023/06/06 00:48:17;;;;;;;7.53;6.43;;;12.70;99.90;;;;;;5051715;28;20033;-70
2023/06/06 00:50:42;;;;;;;7.65;6.85;;;12.60;99.90;;;;;;5051224;28;20040;-71
2023/06/06 00:53:10;;;;;;;9.95;6.82;;;12.50;99.90;;;;;;5052564;28;20033;-70
2023/06/06 00:55:36;;;;;;;8.95;6.35;;;12.50;99.90;;;;;;5052351;28;20029;-70
2023/06/06 00:58:04;;;;;;;7.78;6.55;;;12.50;99.90;;;;;;5051429;28;20045;-71
2023/06/06 01:00:32;;;;;;;9.00;6.68;;;12.40;99.90;;;;;;5051944;28;20178;-70
2023/06/06 01:03:03;;;;;;;8.93;6.20;;;12.40;99.90;;;;;;5051434;28;20449;-70
2023/06/06 01:05:29;;;;;;;7.22;6.53;;;12.40;99.90;;;;;;5051903;28;20480;-70
2023/06/06 01:07:56;;;;;;;8.30;6.32;;;12.30;99.90;;;;;;5051209;28;20070;-70
2023/06/06 01:10:23;;;;;;;8.63;6.45;;;12.30;99.90;;;;;;5051806;28;20027;-71
2023/06/06 01:13:06;;;;;;;7.22;6.00;;;12.30;99.90;;;;;;5051131;28;20029;-70
2023/06/06 01:15:46;;;;;;;;;;;12.30;99.90;;;;;;5052125;28;20073;-70
2023/06/06 01:18:13;;;;;;;7.03;5.70;;;12.30;99.90;;;;;;5051560;28;20011;-70
2023/06/06 01:20:41;;;;;;;6.63;5.72;;;12.30;99.90;;;;;;5051708;28;20145;-70
2023/06/06 01:23:08;;;;;;;7.75;6.95;;;12.30;99.90;;;;;;5051561;28;20070;-70
2023/06/06 01:25:35;;;;;;;7.18;6.45;;;12.30;99.90;;;;;;5051485;28;20032;-70
2023/06/06 01:28:04;;;;;;;8.40;5.97;;;12.20;99.90;;;;;;5050772;28;20423;-70
2023/06/06 01:30:33;;;;;;;7.55;6.43;;;12.20;99.90;;;;;;5051350;28;20033;-70
2023/06/06 01:33:08;;;;;;;7.40;6.18;;;12.20;99.90;;;;;;5050848;28;20035;-70
2023/06/06 01:35:56;;;;;;;7.30;6.38;;;12.10;99.90;;;;;;5051088;28;20044;-70
2023/06/06 01:38:28;;;;;;;7.53;6.53;;;12.10;99.90;;;;;;5050913;28;20037;-70
2023/06/06 01:40:57;;;;;;;9.98;6.57;;;12.10;99.90;;;;;;5050498;28;20021;-70
2023/06/06 01:43:26;;;;;;;7.90;6.45;;;12.00;99.90;;;;;;5051201;28;20124;-70
2023/06/06 01:45:54;;;;;;;9.85;7.45;;;12.00;99.90;;;;;;5050379;28;20048;-70
2023/06/06 01:48:20;;;;;;;8.82;6.70;;;12.00;99.90;;;;;;5050571;28;20508;-70
2023/06/06 01:50:46;;;;;;;10.25;7.53;;;11.90;99.90;;;;;;5050257;28;20427;-70
2023/06/06 01:53:12;;;;;;;7.90;7.10;;;11.90;99.90;;;;;;5051044;28;20547;-70
2023/06/06 01:55:38;;;;;;;8.27;6.38;;;11.90;99.90;;;;;;5050640;28;20036;-70
2023/06/06 01:58:04;;;;;;;8.23;6.72;;;11.90;99.90;;;;;;5049866;28;20067;-71
2023/06/06 02:00:30;;;;;;;9.13;7.03;;;11.90;99.90;;;;;;5050805;28;20083;-70
2023/06/06 02:02:57;;;;;;;9.10;6.75;;;11.90;99.90;;;;;;5050356;28;20405;-70
2023/06/06 02:05:22;;;;;;;8.10;6.43;;;11.80;99.90;;;;;;5050581;28;20112;-70
2023/06/06 02:07:49;;;;;;;7.85;6.90;;;11.80;99.90;;;;;;5050364;28;20171;-70
2023/06/06 02:10:15;;;;;;;9.32;7.57;;;11.80;99.90;;;;;;5050626;28;20057;-70
2023/06/06 02:12:42;;;;;;;11.43;8.05;;;11.90;99.90;;;;;;5050400;28;20518;-70
2023/06/06 02:15:09;;;;;;;10.23;7.10;;;11.80;99.90;;;;;;5050425;28;20138;-70
2023/06/06 02:17:35;;;;;;;10.07;8.05;;;11.80;99.90;;;;;;5050582;28;20036;-70
2023/06/06 02:20:03;;;;;;;11.13;7.50;;;11.80;99.90;;;;;;5049872;28;20033;-73
2023/06/06 02:22:28;;;;;;;8.40;7.50;;;11.80;99.90;;;;;;5050286;28;20538;-70
2023/06/06 02:24:54;;;;;;;10.35;7.85;;;11.80;99.90;;;;;;5050015;28;20130;-70
2023/06/06 02:27:21;;;;;;;12.23;7.55;;;11.80;99.90;;;;;;5050553;28;20053;-70
2023/06/06 02:29:47;;;;;;;11.25;8.18;;;11.80;99.90;;;;;;5049731;28;20029;-71
2023/06/06 02:32:12;;;;;;;8.00;6.90;;;11.80;99.90;;;;;;5050561;28;20117;-70
2023/06/06 02:34:38;;;;;;;7.00;6.30;;;11.70;99.90;;;;;;5048763;28;20448;-70
2023/06/06 02:37:07;;;;;;;10.88;7.68;;;11.70;99.90;;;;;;5049653;28;20025;-70
2023/06/06 02:39:34;;;;;;;11.65;7.63;;;11.70;99.90;;;;;;5050339;28;20029;-70
2023/06/06 02:42:00;;;;;;;10.75;7.68;;;11.70;99.90;;;;;;5049619;28;20033;-70
2023/06/06 02:44:29;;;;;;;9.52;7.50;;;11.60;99.90;;;;;;5050343;28;20083;-70
2023/06/06 02:46:55;;;;;;;11.95;8.38;;;11.60;99.90;;;;;;5049717;28;20079;-70
2023/06/06 02:49:21;;;;;;;10.57;8.15;;;11.60;99.90;;;;;;5053747;28;20417;-70
2023/06/06 02:51:47;;;;;;;12.13;8.95;;;11.60;99.90;;;;;;5056663;28;20028;-72
2023/06/06 02:54:13;;;;;;;10.45;8.95;;;11.50;99.90;;;;;;5057060;28;20094;-70
2023/06/06 02:56:38;;;;;;;9.38;8.07;;;11.50;99.90;;;;;;5056589;28;20036;-70
2023/06/06 02:59:04;;;;;;;11.23;7.93;;;11.50;99.90;;;;;;5055967;28;20112;-70
2023/06/06 03:01:33;;;;;;;11.68;8.50;;;11.40;99.90;;;;;;5056836;28;20108;-70
2023/06/06 03:03:58;;;;;;;10.98;8.18;;;11.40;99.90;;;;;;5056295;28;20166;-71
2023/06/06 03:06:24;;;;;;;9.23;8.02;;;11.40;99.90;;;;;;5056891;28;20407;-70
2023/06/06 03:08:54;;;;;;;10.30;8.40;;;11.30;99.90;;;;;;5056192;28;20025;-71
2023/06/06 03:11:21;;;;;;;14.23;8.60;;;11.40;99.90;;;;;;5056926;28;20024;-70
2023/06/06 03:13:47;;;;;;;9.63;7.72;;;11.40;99.90;;;;;;5056406;28;20048;-72
2023/06/06 03:16:15;;;;;;;10.65;8.05;;;11.30;99.90;;;;;;5056199;28;20032;-70
2023/06/06 03:18:41;;;;;;;10.57;8.40;;;11.20;99.90;;;;;;5056970;28;20055;-70
2023/06/06 03:21:07;;;;;;;11.10;8.00;;;11.20;99.90;;;;;;5056071;28;20104;-70
2023/06/06 03:23:33;;;;;;;11.93;8.90;;;11.30;99.90;;;;;;5056711;28;20095;-70
2023/06/06 03:25:59;;;;;;;12.23;9.25;;;11.30;99.90;;;;;;5055953;28;20076;-70
2023/06/06 03:28:24;;;;;;;12.90;9.40;;;11.30;99.90;;;;;;5056585;28;20029;-70
2023/06/06 03:30:51;;;;;;;11.27;8.38;;;11.20;99.90;;;;;;5055845;28;20036;-72
2023/06/06 03:33:16;;;;;;;12.82;10.10;;;11.20;99.90;;;;;;5056228;28;20427;-69
2023/06/06 03:35:44;;;;;;;10.32;9.20;;;11.20;99.90;;;;;;5055901;28;20056;-69
2023/06/06 03:38:09;;;;;;;15.60;11.98;;;11.20;99.90;;;;;;5053985;28;20086;-70
2023/06/06 03:40:36;;;;;;;14.48;12.20;;;11.10;99.90;;;;;;5055977;28;20025;-70
2023/06/06 03:43:02;;;;;;;22.95;17.95;;;11.10;99.90;;;;;;5056005;28;20450;-70
2023/06/06 03:45:28;;;;;;;20.55;15.15;;;11.10;99.90;;;;;;5056463;28;20036;-69
2023/06/06 03:47:54;;;;;;;18.67;14.27;;;11.10;99.90;;;;;;5055686;28;20025;-69
2023/06/06 03:50:21;;;;;;;18.67;14.43;;;11.10;99.90;;;;;;5055999;28;20455;-70
2023/06/06 03:52:47;;;;;;;18.95;15.27;;;11.00;99.90;;;;;;5056284;28;20036;-70
2023/06/06 03:55:13;;;;;;;20.65;15.02;;;11.00;99.90;;;;;;5055520;28;20520;-70
2023/06/06 03:57:39;;;;;;;23.33;17.38;;;11.00;99.90;;;;;;5056026;28;20025;-70
2023/06/06 04:00:16;;;;;;;21.90;15.93;;;11.00;99.90;;;;;;5053823;28;20090;-70
2023/06/06 04:02:42;;;;;;;28.88;18.63;;;10.90;99.90;;;;;;5052997;28;20090;-70
2023/06/06 04:05:09;;;;;;;23.85;16.52;;;10.90;99.90;;;;;;5052463;28;20029;-70
2023/06/06 04:07:36;;;;;;;26.45;17.35;;;10.90;99.90;;;;;;5052805;28;20032;-70
2023/06/06 04:10:02;;;;;;;23.75;16.10;;;10.80;99.90;;;;;;5052267;28;20405;-70
2023/06/06 04:12:28;;;;;;;27.75;17.42;;;10.90;99.90;;;;;;5052723;28;20041;-70
2023/06/06 04:14:54;;;;;;;26.52;16.92;;;10.90;99.90;;;;;;5052525;28;20534;-71
2023/06/06 04:17:21;;;;;;;27.73;15.52;;;10.90;99.90;;;;;;5052637;28;20032;-71
2023/06/06 04:19:47;;;;;;;27.58;15.18;;;10.90;99.90;;;;;;5052320;28;20081;-71
2023/06/06 04:22:15;;;;;;;24.45;14.93;;;10.90;99.90;;;;;;5050313;28;20495;-71
2023/06/06 04:24:41;;;;;;;23.98;14.23;;;10.90;99.90;;;;;;5051078;28;20379;-70
2023/06/06 04:27:07;;;;;;;20.98;13.95;;;10.90;99.90;;;;;;5051473;28;20132;-70
2023/06/06 04:29:36;;;;;;;20.10;12.95;;;10.90;99.90;;;;;;5052349;28;20029;-70
2023/06/06 04:32:03;;;;;;;21.65;13.35;;;10.90;99.90;;;;;;5051513;28;20048;-70
2023/06/06 04:34:30;;;;;;;19.20;12.25;;;10.90;99.90;;;;;;5050798;28;20060;-70
2023/06/06 04:37:05;;;;;;;14.13;10.50;;;10.90;99.90;;;;;;5051481;28;20057;-70
2023/06/06 04:39:35;;;;;;;20.55;12.02;;;11.00;99.90;;;;;;5052109;28;20029;-70
2023/06/06 04:42:07;;;;;;;14.50;10.60;;;11.00;99.90;;;;;;5051316;28;20096;-70
2023/06/06 04:44:46;;;;;;;15.50;10.75;;;11.00;99.90;;;;;;5052033;28;20047;-70
2023/06/06 04:47:12;;;;;;;12.98;10.27;;;11.10;99.90;;;;;;5050446;28;20077;-70
2023/06/06 04:49:40;;;;;;;13.20;9.73;;;11.20;99.90;;;;;;5050543;28;20025;-70
2023/06/06 04:52:08;;;;;;;14.07;9.73;;;11.30;99.90;;;;;;5050957;28;20029;-70
2023/06/06 04:54:37;;;;;;;10.93;8.57;;;11.50;99.90;;;;;;5052252;28;20118;-70
2023/06/06 04:57:03;;;;;;;12.98;9.75;;;11.60;99.90;;;;;;5051246;28;20429;-70
2023/06/06 04:59:29;;;;;;;14.02;9.90;;;11.80;99.90;;;;;;5051757;28;20025;-70
2023/06/06 05:01:58;;;;;;;11.30;8.88;;;12.00;99.90;;;;;;5051325;28;20387;-72
2023/06/06 05:04:24;;;;;;;12.57;9.80;;;12.10;99.90;;;;;;5051724;28;20025;-70
2023/06/06 05:06:50;;;;;;;11.40;9.25;;;12.30;99.90;;;;;;5052155;28;20083;-70
2023/06/06 05:09:16;;;;;;;13.77;9.25;;;12.30;99.90;;;;;;5051218;28;20497;-71
2023/06/06 05:11:46;;;;;;;15.35;9.32;;;12.40;99.90;;;;;;5051357;28;20021;-70
2023/06/06 05:14:12;;;;;;;11.20;9.30;;;12.60;99.90;;;;;;5050884;28;20036;-70
2023/06/06 05:16:38;;;;;;;11.90;8.93;;;12.70;99.90;;;;;;5051557;28;20094;-70
2023/06/06 05:19:04;;;;;;;12.52;8.73;;;12.90;99.90;;;;;;5051304;28;20029;-70
2023/06/06 05:21:30;;;;;;;11.20;9.20;;;12.90;99.90;;;;;;5051191;28;20459;-71
2023/06/06 05:23:58;;;;;;;13.23;8.75;;;13.10;99.90;;;;;;5050963;28;20033;-73
2023/06/06 05:26:25;;;;;;;12.27;9.50;;;13.20;99.90;;;;;;5051127;28;20056;-70
2023/06/06 05:28:51;;;;;;;12.93;10.05;;;13.20;99.90;;;;;;5049988;28;20029;-70
2023/06/06 05:31:20;;;;;;;11.35;9.75;;;13.30;99.90;;;;;;5050666;28;20621;-70
2023/06/06 05:33:47;;;;;;;13.07;10.15;;;13.40;99.90;;;;;;5050945;28;20040;-70
2023/06/06 05:36:13;;;;;;;12.75;9.13;;;13.60;99.90;;;;;;5050722;28;20555;-70
2023/06/06 05:38:39;;;;;;;10.55;9.40;;;13.70;99.90;;;;;;5051076;28;20031;-70
2023/06/06 05:41:05;;;;;;;13.20;10.18;;;13.80;99.90;;;;;;5049337;28;20351;-70
2023/06/06 05:43:33;;;;;;;17.65;10.02;;;13.90;99.90;;;;;;5049576;28;20035;-70
2023/06/06 05:46:01;;;;;;;12.90;9.73;;;14.00;99.90;;;;;;5050109;28;20044;-73
2023/06/06 05:48:26;;;;;;;15.55;10.40;;;14.00;99.90;;;;;;5050961;28;20028;-70
2023/06/06 05:50:52;;;;;;;11.68;8.98;;;14.10;99.90;;;;;;5050655;28;20028;-70
2023/06/06 05:53:18;;;;;;;12.27;10.00;;;14.20;99.90;;;;;;5051094;28;20081;-70
2023/06/06 05:55:43;;;;;;;18.60;11.65;;;14.30;99.90;;;;;;5050985;28;20025;-71
2023/06/06 05:58:09;;;;;;;17.92;12.23;;;14.50;99.90;;;;;;5049011;28;20036;-70
2023/06/06 06:00:35;;;;;;;14.70;11.88;;;14.60;99.90;;;;;;5049347;28;20171;-70
2023/06/06 06:03:02;;;;;;;17.75;11.63;;;14.70;99.90;;;;;;5049914;28;20029;-71
2023/06/06 06:05:29;;;;;;;17.17;11.20;;;14.90;99.90;;;;;;5050263;28;20110;-70
2023/06/06 06:07:59;;;;;;;19.92;11.63;;;15.00;99.90;;;;;;5050443;28;20036;-70
2023/06/06 06:10:26;;;;;;;16.00;11.40;;;15.10;99.90;;;;;;5050492;28;20025;-71
2023/06/06 06:12:51;;;;;;;14.75;11.18;;;15.30;99.90;;;;;;5050432;28;20119;-71
2023/06/06 06:15:17;;;;;;;13.82;10.57;;;15.40;99.90;;;;;;5049635;28;20056;-70
2023/06/06 06:17:43;;;;;;;14.43;10.40;;;15.60;99.90;;;;;;5050275;28;20033;-70
2023/06/06 06:20:11;;;;;;;13.77;9.80;;;15.70;99.90;;;;;;5049417;28;20099;-70
2023/06/06 06:22:37;;;;;;;10.93;9.65;;;15.70;99.90;;;;;;5050267;28;20161;-70
2023/06/06 06:25:04;;;;;;;13.88;9.75;;;15.90;99.90;;;;;;5048607;28;20025;-70
2023/06/06 06:27:33;;;;;;;15.70;9.88;;;16.00;99.90;;;;;;5049953;28;20517;-71
2023/06/06 06:30:01;;;;;;;14.68;9.40;;;16.20;99.90;;;;;;5050283;28;20028;-70
2023/06/06 06:32:27;;;;;;;9.55;8.55;;;16.30;99.90;;;;;;5049873;28;20421;-70
2023/06/06 06:34:53;;;;;;;13.05;8.93;;;16.50;99.90;;;;;;5050268;28;20025;-70
2023/06/06 06:37:19;;;;;;;12.13;7.95;;;16.60;99.90;;;;;;5049099;28;20029;-70
2023/06/06 06:39:46;;;;;;;10.93;8.07;;;16.70;99.90;;;;;;5050061;28;20025;-70
2023/06/06 06:42:12;;;;;;;10.65;7.05;;;16.70;99.90;;;;;;5049215;28;20090;-70
2023/06/06 06:44:38;;;;;;;10.98;7.15;;;16.80;99.90;;;;;;5049784;28;20024;-69
2023/06/06 06:47:04;;;;;;;10.40;7.25;;;16.80;99.90;;;;;;5049379;28;20402;-71
2023/06/06 06:49:29;;;;;;;8.77;6.85;;;16.90;99.90;;;;;;5049482;28;20025;-70
2023/06/06 06:51:56;;;;;;;12.63;7.70;;;16.90;99.90;;;;;;5049867;28;20021;-70
2023/06/06 06:54:24;;;;;;;10.70;7.50;;;17.00;99.90;;;;;;5049317;28;20048;-70
2023/06/06 06:56:51;;;;;;;9.23;6.75;;;17.10;99.90;;;;;;5049562;28;20073;-70
2023/06/06 06:59:17;;;;;;;8.25;6.70;;;17.20;99.90;;;;;;5049036;28;20039;-70
2023/06/06 07:01:49;;;;;;;9.02;6.75;;;17.20;99.90;;;;;;5049419;28;20048;-69
2023/06/06 07:04:17;;;;;;;10.05;6.72;;;17.20;99.90;;;;;;5049010;28;20033;-70
2023/06/06 07:06:44;;;;;;;11.68;6.97;;;17.30;99.90;;;;;;5049641;28;20026;-70
2023/06/06 07:09:11;;;;;;;10.55;6.45;;;17.30;99.90;;;;;;5049135;28;20085;-70
2023/06/06 07:11:36;;;;;;;9.70;6.40;;;17.40;99.90;;;;;;5048122;28;20024;-70
2023/06/06 07:14:02;;;;;;;11.10;6.70;;;17.30;99.90;;;;;;5049426;28;20029;-73
2023/06/06 07:16:28;;;;;;;10.75;7.05;;;17.40;99.90;;;;;;5049631;28;20083;-70
2023/06/06 07:18:54;;;;;;;9.60;6.90;;;17.40;99.90;;;;;;5049553;28;20102;-70
2023/06/06 07:21:22;;;;;;;14.13;7.97;;;17.60;99.90;;;;;;5048969;28;20033;-70
2023/06/06 07:23:49;;;;;;;10.68;7.43;;;17.80;99.90;;;;;;5049191;28;20103;-70
2023/06/06 07:26:16;;;;;;;12.38;7.10;;;17.70;99.90;;;;;;5048606;28;20084;-71
2023/06/06 07:28:46;;;;;;;11.77;7.53;;;17.90;99.90;;;;;;5049116;28;20129;-71
2023/06/06 07:31:13;;;;;;;19.55;7.40;;;18.00;99.90;;;;;;5048471;28;20350;-71
2023/06/06 07:33:40;;;;;;;11.30;7.70;;;18.00;99.90;;;;;;5049316;28;20054;-71
2023/06/06 07:36:07;;;;;;;10.45;7.25;;;18.10;99.90;;;;;;5051507;28;20530;-72
2023/06/06 07:38:33;;;;;;;10.75;7.22;;;18.10;99.90;;;;;;5053228;28;20029;-71
2023/06/06 07:40:59;;;;;;;12.15;7.53;;;18.10;99.90;;;;;;5052975;28;20025;-71
2023/06/06 07:43:25;;;;;;;15.18;8.35;;;18.00;99.90;;;;;;5052578;28;20718;-71
2023/06/06 07:45:50;;;;;;;18.85;8.43;;;18.20;99.90;;;;;;5053213;28;20099;-71
2023/06/06 07:48:16;;;;;;;14.00;8.15;;;18.00;99.90;;;;;;5051251;28;20450;-71
2023/06/06 07:50:42;;;;;;;11.00;7.07;;;18.00;99.90;;;;;;5052954;28;20036;-71
2023/06/06 07:53:10;;;;;;;10.68;7.20;;;18.20;99.90;;;;;;5052881;28;20033;-72
2023/06/06 07:55:37;;;;;;;12.73;7.38;;;18.30;99.90;;;;;;5052816;28;20037;-71
2023/06/06 07:58:10;;;;;;;9.98;7.13;;;18.50;99.90;;;;;;5053102;28;20017;-71
2023/06/06 08:00:36;;;;;;;;;;;18.50;99.90;;;;;;5053383;28;20033;-71
2023/06/06 08:03:02;;;;;;;13.15;7.57;;;18.20;99.90;;;;;;5052914;28;19930;-71
2023/06/06 08:05:27;;;;;;;12.27;7.80;;;18.10;99.90;;;;;;5052502;28;20072;-71
2023/06/06 08:07:54;;;;;;;13.32;7.85;;;18.10;99.90;;;;;;5052821;28;20103;-71
2023/06/06 08:10:20;;;;;;;11.68;7.70;;;18.10;99.90;;;;;;5052160;28;20094;-71
2023/06/06 08:12:46;;;;;;;11.00;7.82;;;18.20;99.90;;;;;;5052404;28;20035;-71
2023/06/06 08:15:13;;;;;;;12.18;8.93;;;18.40;99.90;;;;;;5052125;28;20029;-71
2023/06/06 08:17:39;;;;;;;10.65;7.85;;;18.40;99.90;;;;;;5052130;28;20097;-71
2023/06/06 08:20:08;;;;;;;10.75;7.38;;;18.60;99.90;;;;;;5052371;28;20086;-71
2023/06/06 08:22:37;;;;;;;12.57;7.55;;;18.50;99.90;;;;;;5052418;28;20171;-71
2023/06/06 08:25:07;;;;;;;12.68;8.18;;;18.50;99.90;;;;;;5052137;28;20025;-71
2023/06/06 08:27:34;;;;;;;10.93;7.82;;;18.40;99.90;;;;;;5051736;28;20044;-71
2023/06/06 08:30:03;;;;;;;12.65;7.63;;;18.20;99.90;;;;;;5052271;28;20031;-72
2023/06/06 08:32:30;;;;;;;9.82;7.43;;;18.30;99.90;;;;;;5051579;28;20156;-71
2023/06/06 08:34:56;;;;;;;11.45;6.82;;;18.30;99.90;;;;;;5052411;28;20029;-71
2023/06/06 08:37:21;;;;;;;9.88;6.43;;;18.10;99.90;;;;;;5033526;28;20025;-71
2023/06/06 08:39:47;;;;;;;10.43;6.38;;;18.00;99.90;;;;;;5052132;28;20028;-71
2023/06/06 08:42:16;;;;;;;10.82;5.90;;;17.80;99.90;;;;;;5051156;28;20489;-71
2023/06/06 08:44:42;;;;;;;11.65;6.32;;;17.90;99.90;;;;;;5051851;28;20053;-70
2023/06/06 08:47:09;;;;;;;10.50;6.40;;;18.00;99.90;;;;;;5050794;28;20032;-73
2023/06/06 08:49:37;;;;;;;12.38;7.45;;;17.90;99.90;;;;;;5051917;28;20142;-71
2023/06/06 08:52:05;;;;;;;13.23;7.18;;;17.80;99.90;;;;;;5051708;28;20025;-70
2023/06/06 08:54:32;;;;;;;18.27;7.53;;;17.90;99.90;;;;;;5051721;28;20059;-70
2023/06/06 08:57:07;;;;;;;14.98;7.82;;;17.80;99.90;;;;;;5051610;28;20035;-71
2023/06/06 08:59:36;;;;;;;16.35;8.07;;;17.80;99.90;;;;;;5049802;28;20057;-72
2023/06/06 09:02:06;;;;;;;15.02;8.15;;;17.70;99.90;;;;;;5052042;28;20116;-72
2023/06/06 09:04:36;;;;;;;13.25;8.32;;;17.80;99.90;;;;;;5050624;28;20033;-72
2023/06/06 09:07:11;;;;;;;17.88;8.02;;;17.90;99.90;;;;;;5051384;28;20048;-70
2023/06/06 09:09:42;;;;;;;18.77;7.88;;;18.10;99.90;;;;;;5051049;28;20057;-71
2023/06/06 09:12:08;;;;;;;12.93;7.63;;;18.20;99.90;;;;;;5051398;28;20112;-71
2023/06/06 09:14:34;;;;;;;14.57;8.05;;;17.80;99.90;;;;;;5050998;28;20111;-71
2023/06/06 09:17:01;;;;;;;12.20;7.07;;;17.80;99.90;;;;;;5051076;28;20104;-71
2023/06/06 09:19:27;;;;;;;12.77;6.85;;;17.80;99.90;;;;;;5050355;28;20029;-71
2023/06/06 09:21:57;;;;;;;14.15;7.60;;;17.60;99.90;;;;;;5050978;28;20032;-72
2023/06/06 09:24:22;;;;;;;14.85;7.50;;;17.70;99.90;;;;;;5052072;28;20037;-72
2023/06/06 09:26:48;;;;;;;12.88;7.05;;;17.70;99.90;;;;;;5052440;28;20105;-72
2023/06/06 09:29:14;;;;;;;15.55;7.63;;;17.90;99.90;;;;;;5051549;28;20475;-72
2023/06/06 09:31:41;;;;;;;12.90;7.32;;;17.80;99.90;;;;;;5052394;28;20406;-72
2023/06/06 09:34:08;;;;;;;12.57;6.78;;;17.80;99.90;;;;;;5052183;28;20470;-73
2023/06/06 09:36:34;;;;;;;19.63;6.72;;;17.60;99.90;;;;;;5051766;28;20056;-72
2023/06/06 09:39:14;;;;;;;14.25;7.18;;;17.60;99.90;;;;;;5052106;28;20024;-72
2023/06/06 09:41:47;;;;;;;14.88;7.15;;;17.50;99.90;;;;;;5052197;28;20462;-72
2023/06/06 09:44:20;;;;;;;20.65;7.00;;;17.60;99.90;;;;;;5051471;28;20068;-75
2023/06/06 09:46:50;;;;;;;15.38;6.93;;;17.70;99.90;;;;;;5051743;28;20039;-72
2023/06/06 09:49:17;;;;;;;12.02;6.25;;;17.80;99.90;;;;;;5051207;28;20060;-73
2023/06/06 09:51:43;;;;;;;10.77;6.18;;;17.60;99.90;;;;;;5050903;28;20037;-72
2023/06/06 09:54:10;;;;;;;17.58;6.80;;;17.40;99.90;;;;;;5051887;28;20437;-73
2023/06/06 09:56:40;;;;;;;13.27;6.18;;;17.50;99.90;;;;;;5051274;28;20374;-72
2023/06/06 09:59:08;;;;;;;14.95;6.13;;;17.70;99.90;;;;;;5050950;28;20459;-73
2023/06/06 10:01:37;;;;;;;15.80;6.13;;;17.80;99.90;;;;;;5051294;28;20310;-73
2023/06/06 10:04:04;;;;;;;19.42;6.78;;;17.90;99.90;;;;;;5050043;28;20410;-73
2023/06/06 10:06:39;;;;;;;13.93;6.78;;;18.10;99.90;;;;;;5049853;28;20478;-72
2023/06/06 10:09:05;;;;;;;14.80;6.85;;;18.20;99.90;;;;;;5050666;28;20136;-72
2023/06/06 10:11:37;;;;;;;15.52;7.18;;;18.20;99.90;;;;;;5049676;28;20454;-72
2023/06/06 10:14:04;;;;;;;11.00;7.60;;;17.80;99.90;;;;;;5050391;28;20050;-72
2023/06/06 10:16:31;;;;;;;18.45;9.25;;;17.90;99.90;;;;;;5049354;28;20036;-72
2023/06/06 10:18:58;;;;;;;15.90;9.45;;;18.10;99.90;;;;;;5049924;28;20116;-72
2023/06/06 10:21:24;;;;;;;15.07;8.27;;;17.80;99.90;;;;;;5048836;28;20107;-74
2023/06/06 10:23:51;;;;;;;16.27;8.85;;;17.50;99.90;;;;;;5049611;28;20369;-72
2023/06/06 10:26:22;;;;;;;13.25;9.25;;;17.20;99.90;;;;;;5049497;28;20045;-72
2023/06/06 10:29:04;;;;;;;19.60;9.10;;;17.10;99.90;;;;;;5049778;28;20017;-72
2023/06/06 10:31:52;;;;;;;15.47;8.57;;;17.00;99.90;;;;;;5049359;28;20068;-73
2023/06/06 10:34:24;;;;;;;17.20;10.38;;;17.30;99.90;;;;;;5049143;28;20139;-73
2023/06/06 10:36:51;;;;;;;16.88;10.45;;;17.30;99.90;;;;;;5049296;28;20166;-72
2023/06/06 10:39:25;;;;;;;15.32;9.75;;;17.10;99.90;;;;;;5048638;28;20040;-72
2023/06/06 10:42:10;;;;;;;18.88;10.93;;;16.90;99.90;;;;;;5048819;28;20519;-72
2023/06/06 10:44:45;;;;;;;20.10;10.80;;;16.90;99.90;;;;;;5048614;28;20040;-72
2023/06/06 10:47:32;;;;;;;16.48;11.15;;;16.80;99.90;;;;;;5049371;28;20024;-73
2023/06/06 10:50:13;;;;;;;23.30;11.35;;;16.90;99.90;;;;;;5048927;28;20029;-73
2023/06/06 10:52:45;;;;;;;18.90;11.70;;;16.70;99.90;;;;;;5048375;28;20023;-72
2023/06/06 10:55:15;;;;;;;14.77;11.73;;;16.70;99.90;;;;;;5049539;28;20419;-72
2023/06/06 10:57:54;;;;;;;16.00;11.68;;;16.80;99.90;;;;;;5049037;28;20308;-72
2023/06/06 11:00:25;;;;;;;16.45;12.63;;;16.70;99.90;;;;;;5048351;28;20029;-72
2023/06/06 11:02:52;;;;;;;19.75;11.57;;;16.70;99.90;;;;;;5049698;28;20029;-72
2023/06/06 11:05:21;;;;;;;18.58;12.32;;;16.70;99.90;;;;;;5048590;28;20066;-72
2023/06/06 11:07:49;;;;;;;16.83;11.63;;;16.70;99.90;;;;;;5049502;28;20071;-72
2023/06/06 11:10:21;;;;;;;19.83;11.73;;;16.60;99.90;;;;;;5049947;28;20036;-73
2023/06/06 11:12:49;;;;;;;25.20;12.75;;;16.50;99.90;;;;;;5053302;28;20115;-72
2023/06/06 11:15:34;;;;;;;23.33;12.90;;;16.20;99.90;;;;;;5052652;28;20112;-75
2023/06/06 11:18:04;;;;;;;18.20;13.00;;;16.10;99.90;;;;;;5053267;28;20082;-72
2023/06/06 11:20:42;;;;;;;19.50;12.57;;;16.30;99.90;;;;;;5052534;28;20026;-72
2023/06/06 11:23:11;;;;;;;18.33;12.73;;;16.50;99.90;;;;;;5052861;28;20057;-72
2023/06/06 11:25:37;;;;;;;16.38;12.70;;;16.40;99.90;;;;;;5051890;28;20025;-73
2023/06/06 11:28:08;;;;;;;17.25;13.80;;;16.40;99.90;;;;;;5051557;28;20044;-72
2023/06/06 11:30:35;;;;;;;19.65;13.15;;;16.40;99.90;;;;;;5052787;28;20087;-72
2023/06/06 11:33:06;;;;;;;16.58;12.02;;;16.40;99.90;;;;;;5053461;28;20089;-72
2023/06/06 11:35:33;;;;;;;19.90;13.30;;;16.50;99.90;;;;;;5052759;28;20029;-72
2023/06/06 11:37:59;;;;;;;18.88;12.98;;;16.50;99.90;;;;;;5053527;28;20057;-72
2023/06/06 11:40:26;;;;;;;17.75;12.13;;;16.50;99.90;;;;;;5052734;28;20021;-72
2023/06/06 11:42:52;;;;;;;17.17;13.25;;;16.20;99.90;;;;;;5053070;28;20501;-71
2023/06/06 11:45:19;;;;;;;17.80;12.57;;;16.00;99.90;;;;;;5052401;28;20052;-72
2023/06/06 11:47:45;;;;;;;16.05;13.32;;;16.00;99.90;;;;;;5053160;28;20036;-73
2023/06/06 11:50:12;;;;;;;15.85;12.35;;;15.90;99.90;;;;;;5052998;28;20117;-71
2023/06/06 11:52:49;;;;;;;17.70;12.10;;;15.80;99.90;;;;;;5052574;28;20028;-71
2023/06/06 11:55:15;;;;;;;15.02;12.27;;;16.00;99.90;;;;;;5051555;28;20394;-75
2023/06/06 11:57:41;;;;;;;22.10;12.93;;;15.90;99.90;;;;;;5052779;28;20021;-70
2023/06/06 12:00:19;;;;;;;19.13;12.45;;;16.00;99.90;;;;;;5051137;28;20120;-70
2023/06/06 12:02:52;;;;;;;17.92;12.40;;;16.10;99.90;;;;;;5053286;28;20033;-71
2023/06/06 12:05:19;;;;;;;15.27;11.75;;;16.10;99.90;;;;;;5052270;28;20021;-71
2023/06/06 12:07:49;;;;;;;18.65;11.90;;;15.90;99.90;;;;;;5052862;28;20112;-71
2023/06/06 12:10:27;;;;;;;16.08;12.40;;;16.00;99.90;;;;;;5052511;28;20079;-73
2023/06/06 12:12:52;;;;;;;17.58;11.88;;;16.00;99.90;;;;;;5052633;28;20394;-71
2023/06/06 12:15:18;;;;;;;20.25;11.60;;;16.20;99.90;;;;;;5051758;28;20136;-72
2023/06/06 12:17:44;;;;;;;15.90;11.35;;;16.30;99.90;;;;;;5052326;28;20102;-71
2023/06/06 12:20:10;;;;;;;17.75;10.90;;;16.10;99.90;;;;;;5052044;28;20108;-71
2023/06/06 12:22:36;;;;;;;16.92;11.23;;;16.30;99.90;;;;;;5050872;28;20032;-71
2023/06/06 12:25:04;;;;;;;12.25;9.98;;;16.40;99.90;;;;;;5052418;28;20021;-70
2023/06/06 12:27:36;;;;;;;14.27;9.38;;;16.60;99.90;;;;;;5052049;28;20114;-71
2023/06/06 12:30:05;;;;;;;15.02;9.65;;;16.60;99.90;;;;;;5052471;28;20116;-71
2023/06/06 12:32:31;;;;;;;19.55;10.02;;;16.70;99.90;;;;;;5050492;28;20029;-71
2023/06/06 12:35:05;;;;;;;15.40;9.43;;;16.60;99.90;;;;;;5052300;28;20032;-70
2023/06/06 12:37:45;;;;;;;13.60;8.98;;;16.30;99.90;;;;;;5050289;28;20021;-71
2023/06/06 12:40:43;;;;;;;12.40;8.68;;;16.60;99.90;;;;;;5052196;28;20120;-69